Keiho Maru — JJ4010 — position and weather

sailwx.info

Track history (hours):
 
Tides and Currents Weather Stations Pressure Air Temp Water Temp Dewpoint Dewpoint Depression Visibility Wind Speed Wind Dir Waves Ship Positions

Keiho Maru

Last reported at 2017-May-28 01:00 UTC. Time now 2017-May-28 01:07 UTC.
Position N 34°42' E 135°17'.

Length 38 m; draft 3.6 m.

Type: Tug. MMSI: 431401501.

Date/timePositionNaut miles runAvg speedWind from/ knotsBaromVisibWave heightAir tempDewpointWater temp
2017-May-28 01:00N 34°42' E 135°17'0 0.3
2017-May-28 00:30N 34°42' E 135°17'1 2.3
2017-May-28 00:00N 34°41' E 135°18'1 1.6
2017-May-27 23:30N 34°40' E 135°18'2 4.8
2017-May-27 23:00N 34°41' E 135°15'2 4.3
2017-May-27 22:30N 34°41' E 135°12'0 0.0
2017-May-27 22:00N 34°41' E 135°12'0 0.0
2017-May-27 11:12N 34°41' E 135°12'0 2.1
2017-May-27 11:00N 34°41' E 135°12'2 4.5
2017-May-27 10:31N 34°39' E 135°15'2 3.1
2017-May-27 10:01N 34°39' E 135°16'1 2.1
2017-May-27 09:31N 34°39' E 135°15'0 0.0
2017-May-27 09:00N 34°39' E 135°15'0 0.0
2017-May-27 08:30N 34°39' E 135°15'0 0.0
2017-May-27 08:00N 34°39' E 135°15'1 1.3
2017-May-27 07:30N 34°40' E 135°15'2 4.7
2017-May-27 07:00N 34°41' E 135°17'0 0.1
2017-May-27 06:30N 34°41' E 135°17'0 0.1
2017-May-27 06:01N 34°41' E 135°17'4 7.1
2017-May-27 05:30N 34°41' E 135°13'1 1.5
2017-May-27 05:00N 34°41' E 135°12'0 0.0
2017-May-27 04:30N 34°41' E 135°12'0 0.0
2017-May-27 04:00N 34°41' E 135°12'0 0.0
2017-May-27 03:30N 34°41' E 135°12'0 0.0
2017-May-27 03:00N 34°41' E 135°12'0 0.0
2017-May-27 02:30N 34°41' E 135°12'0 0.0
2017-May-27 02:00N 34°41' E 135°12'0 0.0
2017-May-27 01:30N 34°41' E 135°12'0 0.0
2017-May-27 01:00N 34°41' E 135°12'0 0.0
2017-May-27 00:30N 34°41' E 135°12'0 0.7
2017-May-27 00:00N 34°41' E 135°12'3 5.9
2017-May-26 23:30N 34°41' E 135°16'0 0.6
2017-May-26 23:00N 34°40' E 135°16'1 1.7
2017-May-26 22:30N 34°40' E 135°15'1 1.6
2017-May-26 22:00N 34°40' E 135°14'2 3.8
2017-May-26 21:30N 34°41' E 135°12'0 0.0
2017-May-26 20:59N 34°41' E 135°12'0 0.0
2017-May-26 20:30N 34°41' E 135°12'0 0.0
2017-May-26 07:35N 34°41' E 135°12'0 0.0
2017-May-26 07:30N 34°41' E 135°12'4 7.6
2017-May-26 06:58N 34°42' E 135°17'1 1.5
2017-May-26 06:30N 34°42' E 135°16'3 6.8
2017-May-26 06:00N 34°41' E 135°12'0 0.0
2017-May-26 05:30N 34°41' E 135°12'0 0.0
2017-May-26 05:00N 34°41' E 135°12'0 0.0
2017-May-26 04:30N 34°41' E 135°12'0 0.0
2017-May-26 04:00N 34°41' E 135°12'0 0.0
2017-May-26 03:30N 34°41' E 135°12'0 0.0
2017-May-26 03:00N 34°41' E 135°12'0 0.0
2017-May-26 02:30N 34°41' E 135°12'0 0.0
2017-May-26 02:00N 34°41' E 135°12'0 0.0
2017-May-26 01:30N 34°41' E 135°12'0 0.0
2017-May-26 01:00N 34°41' E 135°12'0 0.0
2017-May-26 00:30N 34°41' E 135°12'0 0.0
2017-May-26 00:00N 34°41' E 135°12'0 0.0
2017-May-25 23:30N 34°41' E 135°12'0 0.0
2017-May-25 23:00N 34°41' E 135°12'0 0.0
2017-May-25 07:36N 34°41' E 135°12'0 0.0
2017-May-25 07:30N 34°41' E 135°12'3 6.1
2017-May-25 07:00N 34°41' E 135°16'0 0.4
2017-May-25 06:30N 34°41' E 135°16'3 5.6
2017-May-25 06:00N 34°41' E 135°12'0 0.0
2017-May-25 05:30N 34°41' E 135°12'0 0.0
2017-May-25 05:00N 34°41' E 135°12'0 0.0
2017-May-25 04:30N 34°41' E 135°12'0 0.0
2017-May-25 04:00N 34°41' E 135°12'0 0.0
2017-May-25 03:30N 34°41' E 135°12'0 0.0
2017-May-25 03:00N 34°41' E 135°12'0 0.0
2017-May-25 02:30N 34°41' E 135°12'0 0.0
2017-May-25 02:00N 34°41' E 135°12'2 4.9
2017-May-25 01:30N 34°39' E 135°15'0 0.6
2017-May-25 01:00N 34°39' E 135°15'1 1.9
2017-May-25 00:30N 34°39' E 135°16'1 2.9
2017-May-25 00:00N 34°40' E 135°15'0 0.1
2017-May-24 23:30N 34°40' E 135°15'2 3.9
2017-May-24 23:00N 34°41' E 135°13'3 4.9
2017-May-24 22:30N 34°41' E 135°16'1 2.0
2017-May-24 21:59N 34°40' E 135°15'2 3.4
2017-May-24 21:30N 34°41' E 135°14'1 2.7
2017-May-24 21:00N 34°41' E 135°12'0 0.0
2017-May-24 20:30N 34°41' E 135°12'0 0.0
2017-May-24 10:11N 34°41' E 135°12'0 1.1
2017-May-24 10:00N 34°41' E 135°12'2 3.3
2017-May-24 09:30N 34°40' E 135°14'0 0.3
2017-May-24 09:00N 34°40' E 135°14'0 0.8
2017-May-24 08:30N 34°40' E 135°14'2 4.0
2017-May-24 07:59N 34°39' E 135°16'1 2.2
2017-May-24 07:30N 34°39' E 135°15'0 0.0
2017-May-24 07:00N 34°39' E 135°15'0 0.0
2017-May-24 06:30N 34°39' E 135°15'0 0.0
2017-May-24 06:00N 34°39' E 135°15'3 6.0
2017-May-24 05:30N 34°42' E 135°16'0 0.0
2017-May-24 05:00N 34°42' E 135°16'0 0.5
2017-May-24 04:30N 34°42' E 135°16'3 5.0
2017-May-24 04:00N 34°41' E 135°13'1 1.5
2017-May-24 03:30N 34°41' E 135°12'0 0.0
2017-May-24 03:00N 34°41' E 135°12'0 0.0
2017-May-24 02:30N 34°41' E 135°12'0 0.0
2017-May-24 02:00N 34°41' E 135°12'0 0.0
2017-May-24 01:30N 34°41' E 135°12'0 0.0
2017-May-24 01:00N 34°41' E 135°12'0 0.0
2017-May-24 00:30N 34°41' E 135°12'0 0.0
2017-May-24 00:00N 34°41' E 135°12'0 0.0
2017-May-23 23:30N 34°41' E 135°12'3 6.8
2017-May-23 23:00N 34°41' E 135°16'1 1.6
2017-May-23 22:30N 34°41' E 135°17'1 1.6
2017-May-23 22:00N 34°40' E 135°18'2 4.7
2017-May-23 21:30N 34°41' E 135°15'2 5.0
2017-May-23 21:00N 34°41' E 135°12'0 0.0
2017-May-23 20:30N 34°41' E 135°12'0 0.0
2017-May-23 08:30N 34°41' E 135°12'1 1.7
2017-May-23 08:00N 34°40' E 135°13'0 0.1
2017-May-23 07:30N 34°40' E 135°13'1 1.4
2017-May-23 07:00N 34°41' E 135°12'0 0.0
2017-May-23 06:30N 34°41' E 135°12'0 0.0
2017-May-23 06:00N 34°41' E 135°12'0 0.0
2017-May-23 05:30N 34°41' E 135°12'0 0.0
2017-May-23 05:01N 34°41' E 135°12'0 0.0
2017-May-23 04:30N 34°41' E 135°12'0 0.0
2017-May-23 04:00N 34°41' E 135°12'0 0.0
2017-May-23 03:30N 34°41' E 135°12'0 0.0
2017-May-23 03:00N 34°41' E 135°12'0 0.0
2017-May-23 02:29N 34°41' E 135°12'0 0.0
2017-May-23 02:01N 34°41' E 135°12'0 0.0
2017-May-23 01:30N 34°41' E 135°12'0 0.0
2017-May-23 01:00N 34°41' E 135°12'1 1.5
2017-May-23 00:30N 34°41' E 135°13'2 4.3
2017-May-23 00:00N 34°39' E 135°15'1 2.7
2017-May-22 23:30N 34°39' E 135°16'1 2.1
2017-May-22 23:00N 34°39' E 135°15'3 5.7
2017-May-22 22:30N 34°42' E 135°16'0 0.5
2017-May-22 22:00N 34°42' E 135°15'1 1.5
2017-May-22 21:30N 34°41' E 135°15'3 5.2
2017-May-22 21:01N 34°40' E 135°12'0 0.2
2017-May-22 20:30N 34°41' E 135°12'0 0.0
2017-May-22 08:46N 34°41' E 135°12'1 3.7
2017-May-22 08:30N 34°41' E 135°13'1 3.0
2017-May-22 08:00N 34°40' E 135°14'1 1.1
2017-May-22 07:30N 34°40' E 135°15'2 4.6
2017-May-22 07:00N 34°41' E 135°12'0 0.0
2017-May-22 06:30N 34°41' E 135°12'0 0.0
2017-May-22 06:00N 34°41' E 135°12'0 0.0
2017-May-22 05:30N 34°41' E 135°12'0 0.0
2017-May-22 05:00N 34°41' E 135°12'0 0.0
2017-May-22 04:30N 34°41' E 135°12'0 0.0
2017-May-22 04:00N 34°41' E 135°12'0 0.0
2017-May-22 03:30N 34°41' E 135°12'0 0.0
2017-May-22 03:00N 34°41' E 135°12'0 0.0
2017-May-22 02:30N 34°41' E 135°12'0 0.0
2017-May-22 02:00N 34°41' E 135°12'0 0.0
2017-May-22 01:30N 34°41' E 135°12'0 0.0
2017-May-22 01:00N 34°41' E 135°12'2 4.6
2017-May-22 00:30N 34°42' E 135°14'0 0.3
2017-May-22 00:00N 34°42' E 135°14'2 4.4
2017-May-21 23:30N 34°41' E 135°12'0 0.1
2017-May-21 23:00N 34°41' E 135°12'0 0.0
2017-May-21 05:32N 34°41' E 135°12'0 0.0
2017-May-21 05:30N 34°41' E 135°12'0 0.0
2017-May-21 03:04N 34°41' E 135°12'0 0.0
2017-May-21 03:00N 34°41' E 135°12'0 0.2
2017-May-21 02:30N 34°41' E 135°12'0 0.0
2017-May-21 02:00N 34°41' E 135°12'0 0.0
2017-May-21 01:30N 34°41' E 135°12'0 0.0
2017-May-21 01:00N 34°41' E 135°12'0 0.0
2017-May-21 00:30N 34°41' E 135°12'0 0.0
2017-May-20 19:43N 34°41' E 135°12'0 1.6
2017-May-20 19:30N 34°41' E 135°12'0 0.1
2017-May-20 19:00N 34°41' E 135°12'0 0.3
2017-May-20 18:30N 34°41' E 135°12'0 0.8
2017-May-20 18:00N 34°41' E 135°12'0 0.0
2017-May-20 17:30N 34°41' E 135°12'0 0.0
2017-May-20 17:00N 34°41' E 135°12'0 0.0
2017-May-20 16:30N 34°41' E 135°12'0 0.0
2017-May-20 16:00N 34°41' E 135°12'0 0.0
2017-May-20 15:30N 34°41' E 135°12'0 0.0
2017-May-20 15:00N 34°41' E 135°12'0 0.0
2017-May-20 14:30N 34°41' E 135°12'0 0.0
2017-May-20 13:30N 34°41' E 135°12'0 0.0
2017-May-20 13:00N 34°41' E 135°12'0 0.0
2017-May-20 12:30N 34°41' E 135°12'2 4.5
2017-May-20 12:00N 34°39' E 135°15'1 1.2
2017-May-20 11:29N 34°39' E 135°15'0 0.5
2017-May-20 11:00N 34°39' E 135°15'0 0.0
2017-May-20 10:30N 34°39' E 135°15'0 0.0
2017-May-20 10:00N 34°39' E 135°15'0 0.0
2017-May-20 09:30N 34°39' E 135°15'0 0.0
2017-May-20 09:00N 34°39' E 135°15'0 0.0
2017-May-20 08:30N 34°39' E 135°15'0 0.0
2017-May-20 08:00N 34°39' E 135°15'0 0.0
2017-May-20 07:30N 34°39' E 135°15'3 5.8
2017-May-20 07:00N 34°41' E 135°18'1 1.3
2017-May-20 06:30N 34°42' E 135°17'0 0.0
2017-May-20 06:00N 34°42' E 135°17'0 0.0
2017-May-20 05:30N 34°42' E 135°17'0 0.0
2017-May-20 05:00N 34°42' E 135°17'0 0.0
2017-May-20 04:30N 34°42' E 135°17'0 0.0
2017-May-20 04:00N 34°42' E 135°17'0 0.0
2017-May-20 03:30N 34°42' E 135°17'0 0.0
2017-May-20 03:00N 34°42' E 135°17'0 0.0
2017-May-20 02:30N 34°42' E 135°17'3 5.2
2017-May-20 02:00N 34°40' E 135°19'4 7.6
2017-May-20 01:29N 34°39' E 135°24'1 2.5
2017-May-20 01:00N 34°38' E 135°23'3 6.9
2017-May-20 00:30N 34°40' E 135°20'510.3
2017-May-20 00:00N 34°40' E 135°13'0 0.5
2017-May-19 23:30N 34°40' E 135°13'1 1.7
2017-May-19 23:00N 34°40' E 135°14'1 3.0
2017-May-19 22:30N 34°41' E 135°16'2 3.2
2017-May-19 22:00N 34°40' E 135°18'3 6.4
2017-May-19 21:30N 34°41' E 135°14'2 3.1
2017-May-19 21:00N 34°41' E 135°12'0 0.0
2017-May-19 20:30N 34°41' E 135°12'0 0.0
2017-May-19 08:37N 34°41' E 135°12'0 0.0
2017-May-19 08:30N 34°41' E 135°12'2 4.5
2017-May-19 08:00N 34°39' E 135°15'1 1.4
2017-May-19 07:30N 34°40' E 135°15'0 0.0
2017-May-19 07:01N 34°40' E 135°15'2 3.7
2017-May-19 06:31N 34°42' E 135°15'0 0.1
2017-May-19 06:00N 34°42' E 135°15'2 3.9
2017-May-19 05:31N 34°40' E 135°15'2 4.2
2017-May-19 05:00N 34°41' E 135°13'1 1.3
2017-May-19 04:31N 34°41' E 135°12'0 0.0
2017-May-19 04:00N 34°41' E 135°12'0 0.0
2017-May-19 03:31N 34°41' E 135°12'0 0.0
2017-May-19 03:00N 34°41' E 135°12'0 0.0
2017-May-19 02:30N 34°41' E 135°12'0 0.0
2017-May-19 02:00N 34°41' E 135°12'0 0.0
2017-May-19 01:30N 34°41' E 135°12'0 0.0
2017-May-19 01:00N 34°41' E 135°12'0 0.0
2017-May-19 00:31N 34°41' E 135°12'0 0.0
2017-May-19 00:00N 34°41' E 135°12'2 3.0
2017-May-18 23:30N 34°41' E 135°14'2 4.9
2017-May-18 23:00N 34°41' E 135°17'0 0.4
2017-May-18 22:30N 34°41' E 135°17'1 2.2
2017-May-18 22:01N 34°41' E 135°18'0 0.4
2017-May-18 21:30N 34°41' E 135°18'5 9.3
2017-May-18 21:00N 34°41' E 135°12'0 0.3
2017-May-18 20:30N 34°41' E 135°12'0 0.0
2017-May-18 06:54N 34°41' E 135°12'0 0.0
2017-May-18 06:30N 34°41' E 135°12'0 0.0
2017-May-18 06:00N 34°41' E 135°12'0 0.0
2017-May-18 05:30N 34°41' E 135°12'0 0.0
2017-May-18 05:00N 34°41' E 135°12'1 2.3
2017-May-18 04:30N 34°40' E 135°13'0 0.2
2017-May-18 04:00N 34°40' E 135°14'1 2.5
2017-May-18 03:30N 34°41' E 135°12'0 0.0
2017-May-18 03:00N 34°41' E 135°12'0 0.0
2017-May-18 02:30N 34°41' E 135°12'0 0.0
2017-May-18 02:00N 34°41' E 135°12'0 0.0
2017-May-18 01:30N 34°41' E 135°12'  
Track history (hours):
 
Tides and Currents Weather Stations Pressure Air Temp Water Temp Dewpoint Dewpoint Depression Visibility Wind Speed Wind Dir Waves Ship Positions

Keiho Maru

Last reported at 2017-May-28 01:00 UTC. Time now 2017-May-28 01:07 UTC.
Position N 34°42' E 135°17'.

Length 38 m; draft 3.6 m.

Type: Tug. MMSI: 431401501.

Date/timePositionNaut miles runAvg speedWind from/ knotsBaromVisibWave heightAir tempDewpointWater temp
2017-May-28 01:00N 34°42' E 135°17'0 0.3
2017-May-28 00:30N 34°42' E 135°17'1 2.3
2017-May-28 00:00N 34°41' E 135°18'1 1.6
2017-May-27 23:30N 34°40' E 135°18'2 4.8
2017-May-27 23:00N 34°41' E 135°15'2 4.3
2017-May-27 22:30N 34°41' E 135°12'0 0.0
2017-May-27 22:00N 34°41' E 135°12'0 0.0
2017-May-27 11:12N 34°41' E 135°12'0 2.1
2017-May-27 11:00N 34°41' E 135°12'2 4.5
2017-May-27 10:31N 34°39' E 135°15'2 3.1
2017-May-27 10:01N 34°39' E 135°16'1 2.1
2017-May-27 09:31N 34°39' E 135°15'0 0.0
2017-May-27 09:00N 34°39' E 135°15'0 0.0
2017-May-27 08:30N 34°39' E 135°15'0 0.0
2017-May-27 08:00N 34°39' E 135°15'1 1.3
2017-May-27 07:30N 34°40' E 135°15'2 4.7
2017-May-27 07:00N 34°41' E 135°17'0 0.1
2017-May-27 06:30N 34°41' E 135°17'0 0.1
2017-May-27 06:01N 34°41' E 135°17'4 7.1
2017-May-27 05:30N 34°41' E 135°13'1 1.5
2017-May-27 05:00N 34°41' E 135°12'0 0.0
2017-May-27 04:30N 34°41' E 135°12'0 0.0
2017-May-27 04:00N 34°41' E 135°12'0 0.0
2017-May-27 03:30N 34°41' E 135°12'0 0.0
2017-May-27 03:00N 34°41' E 135°12'0 0.0
2017-May-27 02:30N 34°41' E 135°12'0 0.0
2017-May-27 02:00N 34°41' E 135°12'0 0.0
2017-May-27 01:30N 34°41' E 135°12'0 0.0
2017-May-27 01:00N 34°41' E 135°12'0 0.0
2017-May-27 00:30N 34°41' E 135°12'0 0.7
2017-May-27 00:00N 34°41' E 135°12'3 5.9
2017-May-26 23:30N 34°41' E 135°16'0 0.6
2017-May-26 23:00N 34°40' E 135°16'1 1.7
2017-May-26 22:30N 34°40' E 135°15'1 1.6
2017-May-26 22:00N 34°40' E 135°14'2 3.8
2017-May-26 21:30N 34°41' E 135°12'0 0.0
2017-May-26 20:59N 34°41' E 135°12'0 0.0
2017-May-26 20:30N 34°41' E 135°12'0 0.0
2017-May-26 07:35N 34°41' E 135°12'0 0.0
2017-May-26 07:30N 34°41' E 135°12'4 7.6
2017-May-26 06:58N 34°42' E 135°17'1 1.5
2017-May-26 06:30N 34°42' E 135°16'3 6.8
2017-May-26 06:00N 34°41' E 135°12'0 0.0
2017-May-26 05:30N 34°41' E 135°12'0 0.0
2017-May-26 05:00N 34°41' E 135°12'0 0.0
2017-May-26 04:30N 34°41' E 135°12'0 0.0
2017-May-26 04:00N 34°41' E 135°12'0 0.0
2017-May-26 03:30N 34°41' E 135°12'0 0.0
2017-May-26 03:00N 34°41' E 135°12'0 0.0
2017-May-26 02:30N 34°41' E 135°12'0 0.0
2017-May-26 02:00N 34°41' E 135°12'0 0.0
2017-May-26 01:30N 34°41' E 135°12'0 0.0
2017-May-26 01:00N 34°41' E 135°12'0 0.0
2017-May-26 00:30N 34°41' E 135°12'0 0.0
2017-May-26 00:00N 34°41' E 135°12'0 0.0
2017-May-25 23:30N 34°41' E 135°12'0 0.0
2017-May-25 23:00N 34°41' E 135°12'0 0.0
2017-May-25 07:36N 34°41' E 135°12'0 0.0
2017-May-25 07:30N 34°41' E 135°12'3 6.1
2017-May-25 07:00N 34°41' E 135°16'0 0.4
2017-May-25 06:30N 34°41' E 135°16'3 5.6
2017-May-25 06:00N 34°41' E 135°12'0 0.0
2017-May-25 05:30N 34°41' E 135°12'0 0.0
2017-May-25 05:00N 34°41' E 135°12'0 0.0
2017-May-25 04:30N 34°41' E 135°12'0 0.0
2017-May-25 04:00N 34°41' E 135°12'0 0.0
2017-May-25 03:30N 34°41' E 135°12'0 0.0
2017-May-25 03:00N 34°41' E 135°12'0 0.0
2017-May-25 02:30N 34°41' E 135°12'0 0.0
2017-May-25 02:00N 34°41' E 135°12'2 4.9
2017-May-25 01:30N 34°39' E 135°15'0 0.6
2017-May-25 01:00N 34°39' E 135°15'1 1.9
2017-May-25 00:30N 34°39' E 135°16'1 2.9
2017-May-25 00:00N 34°40' E 135°15'0 0.1
2017-May-24 23:30N 34°40' E 135°15'2 3.9
2017-May-24 23:00N 34°41' E 135°13'3 4.9
2017-May-24 22:30N 34°41' E 135°16'1 2.0
2017-May-24 21:59N 34°40' E 135°15'2 3.4
2017-May-24 21:30N 34°41' E 135°14'1 2.7
2017-May-24 21:00N 34°41' E 135°12'0 0.0
2017-May-24 20:30N 34°41' E 135°12'0 0.0
2017-May-24 10:11N 34°41' E 135°12'0 1.1
2017-May-24 10:00N 34°41' E 135°12'2 3.3
2017-May-24 09:30N 34°40' E 135°14'0 0.3
2017-May-24 09:00N 34°40' E 135°14'0 0.8
2017-May-24 08:30N 34°40' E 135°14'2 4.0
2017-May-24 07:59N 34°39' E 135°16'1 2.2
2017-May-24 07:30N 34°39' E 135°15'0 0.0
2017-May-24 07:00N 34°39' E 135°15'0 0.0
2017-May-24 06:30N 34°39' E 135°15'0 0.0
2017-May-24 06:00N 34°39' E 135°15'3 6.0
2017-May-24 05:30N 34°42' E 135°16'0 0.0
2017-May-24 05:00N 34°42' E 135°16'0 0.5
2017-May-24 04:30N 34°42' E 135°16'3 5.0
2017-May-24 04:00N 34°41' E 135°13'1 1.5
2017-May-24 03:30N 34°41' E 135°12'0 0.0
2017-May-24 03:00N 34°41' E 135°12'0 0.0
2017-May-24 02:30N 34°41' E 135°12'0 0.0
2017-May-24 02:00N 34°41' E 135°12'0 0.0
2017-May-24 01:30N 34°41' E 135°12'0 0.0
2017-May-24 01:00N 34°41' E 135°12'0 0.0
2017-May-24 00:30N 34°41' E 135°12'0 0.0
2017-May-24 00:00N 34°41' E 135°12'0 0.0
2017-May-23 23:30N 34°41' E 135°12'3 6.8
2017-May-23 23:00N 34°41' E 135°16'1 1.6
2017-May-23 22:30N 34°41' E 135°17'1 1.6
2017-May-23 22:00N 34°40' E 135°18'2 4.7
2017-May-23 21:30N 34°41' E 135°15'2 5.0
2017-May-23 21:00N 34°41' E 135°12'0 0.0
2017-May-23 20:30N 34°41' E 135°12'0 0.0
2017-May-23 08:30N 34°41' E 135°12'1 1.7
2017-May-23 08:00N 34°40' E 135°13'0 0.1
2017-May-23 07:30N 34°40' E 135°13'1 1.4
2017-May-23 07:00N 34°41' E 135°12'0 0.0
2017-May-23 06:30N 34°41' E 135°12'0 0.0
2017-May-23 06:00N 34°41' E 135°12'0 0.0
2017-May-23 05:30N 34°41' E 135°12'0 0.0
2017-May-23 05:01N 34°41' E 135°12'0 0.0
2017-May-23 04:30N 34°41' E 135°12'0 0.0
2017-May-23 04:00N 34°41' E 135°12'0 0.0
2017-May-23 03:30N 34°41' E 135°12'0 0.0
2017-May-23 03:00N 34°41' E 135°12'0 0.0
2017-May-23 02:29N 34°41' E 135°12'0 0.0
2017-May-23 02:01N 34°41' E 135°12'0 0.0
2017-May-23 01:30N 34°41' E 135°12'0 0.0
2017-May-23 01:00N 34°41' E 135°12'1 1.5
2017-May-23 00:30N 34°41' E 135°13'2 4.3
2017-May-23 00:00N 34°39' E 135°15'1 2.7
2017-May-22 23:30N 34°39' E 135°16'1 2.1
2017-May-22 23:00N 34°39' E 135°15'3 5.7
2017-May-22 22:30N 34°42' E 135°16'0 0.5
2017-May-22 22:00N 34°42' E 135°15'1 1.5
2017-May-22 21:30N 34°41' E 135°15'3 5.2
2017-May-22 21:01N 34°40' E 135°12'0 0.2
2017-May-22 20:30N 34°41' E 135°12'0 0.0
2017-May-22 08:46N 34°41' E 135°12'1 3.7
2017-May-22 08:30N 34°41' E 135°13'1 3.0
2017-May-22 08:00N 34°40' E 135°14'1 1.1
2017-May-22 07:30N 34°40' E 135°15'2 4.6
2017-May-22 07:00N 34°41' E 135°12'0 0.0
2017-May-22 06:30N 34°41' E 135°12'0 0.0
2017-May-22 06:00N 34°41' E 135°12'0 0.0
2017-May-22 05:30N 34°41' E 135°12'0 0.0
2017-May-22 05:00N 34°41' E 135°12'0 0.0
2017-May-22 04:30N 34°41' E 135°12'0 0.0
2017-May-22 04:00N 34°41' E 135°12'0 0.0
2017-May-22 03:30N 34°41' E 135°12'0 0.0
2017-May-22 03:00N 34°41' E 135°12'0 0.0
2017-May-22 02:30N 34°41' E 135°12'0 0.0
2017-May-22 02:00N 34°41' E 135°12'0 0.0
2017-May-22 01:30N 34°41' E 135°12'0 0.0
2017-May-22 01:00N 34°41' E 135°12'2 4.6
2017-May-22 00:30N 34°42' E 135°14'0 0.3
2017-May-22 00:00N 34°42' E 135°14'2 4.4
2017-May-21 23:30N 34°41' E 135°12'0 0.1
2017-May-21 23:00N 34°41' E 135°12'0 0.0
2017-May-21 05:32N 34°41' E 135°12'0 0.0
2017-May-21 05:30N 34°41' E 135°12'0 0.0
2017-May-21 03:04N 34°41' E 135°12'0 0.0
2017-May-21 03:00N 34°41' E 135°12'0 0.2
2017-May-21 02:30N 34°41' E 135°12'0 0.0
2017-May-21 02:00N 34°41' E 135°12'0 0.0
2017-May-21 01:30N 34°41' E 135°12'0 0.0
2017-May-21 01:00N 34°41' E 135°12'0 0.0
2017-May-21 00:30N 34°41' E 135°12'0 0.0
2017-May-20 19:43N 34°41' E 135°12'0 1.6
2017-May-20 19:30N 34°41' E 135°12'0 0.1
2017-May-20 19:00N 34°41' E 135°12'0 0.3
2017-May-20 18:30N 34°41' E 135°12'0 0.8
2017-May-20 18:00N 34°41' E 135°12'0 0.0
2017-May-20 17:30N 34°41' E 135°12'0 0.0
2017-May-20 17:00N 34°41' E 135°12'0 0.0
2017-May-20 16:30N 34°41' E 135°12'0 0.0
2017-May-20 16:00N 34°41' E 135°12'0 0.0
2017-May-20 15:30N 34°41' E 135°12'0 0.0
2017-May-20 15:00N 34°41' E 135°12'0 0.0
2017-May-20 14:30N 34°41' E 135°12'0 0.0
2017-May-20 13:30N 34°41' E 135°12'0 0.0
2017-May-20 13:00N 34°41' E 135°12'0 0.0
2017-May-20 12:30N 34°41' E 135°12'2 4.5
2017-May-20 12:00N 34°39' E 135°15'1 1.2
2017-May-20 11:29N 34°39' E 135°15'0 0.5
2017-May-20 11:00N 34°39' E 135°15'0 0.0
2017-May-20 10:30N 34°39' E 135°15'0 0.0
2017-May-20 10:00N 34°39' E 135°15'0 0.0
2017-May-20 09:30N 34°39' E 135°15'0 0.0
2017-May-20 09:00N 34°39' E 135°15'0 0.0
2017-May-20 08:30N 34°39' E 135°15'0 0.0
2017-May-20 08:00N 34°39' E 135°15'0 0.0
2017-May-20 07:30N 34°39' E 135°15'3 5.8
2017-May-20 07:00N 34°41' E 135°18'1 1.3
2017-May-20 06:30N 34°42' E 135°17'0 0.0
2017-May-20 06:00N 34°42' E 135°17'0 0.0
2017-May-20 05:30N 34°42' E 135°17'0 0.0
2017-May-20 05:00N 34°42' E 135°17'0 0.0
2017-May-20 04:30N 34°42' E 135°17'0 0.0
2017-May-20 04:00N 34°42' E 135°17'0 0.0
2017-May-20 03:30N 34°42' E 135°17'0 0.0
2017-May-20 03:00N 34°42' E 135°17'0 0.0
2017-May-20 02:30N 34°42' E 135°17'3 5.2
2017-May-20 02:00N 34°40' E 135°19'4 7.6
2017-May-20 01:29N 34°39' E 135°24'1 2.5
2017-May-20 01:00N 34°38' E 135°23'3 6.9
2017-May-20 00:30N 34°40' E 135°20'510.3
2017-May-20 00:00N 34°40' E 135°13'0 0.5
2017-May-19 23:30N 34°40' E 135°13'1 1.7
2017-May-19 23:00N 34°40' E 135°14'1 3.0
2017-May-19 22:30N 34°41' E 135°16'2 3.2
2017-May-19 22:00N 34°40' E 135°18'3 6.4
2017-May-19 21:30N 34°41' E 135°14'2 3.1
2017-May-19 21:00N 34°41' E 135°12'0 0.0
2017-May-19 20:30N 34°41' E 135°12'0 0.0
2017-May-19 08:37N 34°41' E 135°12'0 0.0
2017-May-19 08:30N 34°41' E 135°12'2 4.5
2017-May-19 08:00N 34°39' E 135°15'1 1.4
2017-May-19 07:30N 34°40' E 135°15'0 0.0
2017-May-19 07:01N 34°40' E 135°15'2 3.7
2017-May-19 06:31N 34°42' E 135°15'0 0.1
2017-May-19 06:00N 34°42' E 135°15'2 3.9
2017-May-19 05:31N 34°40' E 135°15'2 4.2
2017-May-19 05:00N 34°41' E 135°13'1 1.3
2017-May-19 04:31N 34°41' E 135°12'0 0.0
2017-May-19 04:00N 34°41' E 135°12'0 0.0
2017-May-19 03:31N 34°41' E 135°12'0 0.0
2017-May-19 03:00N 34°41' E 135°12'0 0.0
2017-May-19 02:30N 34°41' E 135°12'0 0.0
2017-May-19 02:00N 34°41' E 135°12'0 0.0
2017-May-19 01:30N 34°41' E 135°12'0 0.0
2017-May-19 01:00N 34°41' E 135°12'0 0.0
2017-May-19 00:31N 34°41' E 135°12'0 0.0
2017-May-19 00:00N 34°41' E 135°12'2 3.0
2017-May-18 23:30N 34°41' E 135°14'2 4.9
2017-May-18 23:00N 34°41' E 135°17'0 0.4
2017-May-18 22:30N 34°41' E 135°17'1 2.2
2017-May-18 22:01N 34°41' E 135°18'0 0.4
2017-May-18 21:30N 34°41' E 135°18'5 9.3
2017-May-18 21:00N 34°41' E 135°12'0 0.3
2017-May-18 20:30N 34°41' E 135°12'0 0.0
2017-May-18 06:54N 34°41' E 135°12'0 0.0
2017-May-18 06:30N 34°41' E 135°12'0 0.0
2017-May-18 06:00N 34°41' E 135°12'0 0.0
2017-May-18 05:30N 34°41' E 135°12'0 0.0
2017-May-18 05:00N 34°41' E 135°12'1 2.3
2017-May-18 04:30N 34°40' E 135°13'0 0.2
2017-May-18 04:00N 34°40' E 135°14'1 2.5
2017-May-18 03:30N 34°41' E 135°12'0 0.0
2017-May-18 03:00N 34°41' E 135°12'0 0.0
2017-May-18 02:30N 34°41' E 135°12'0 0.0
2017-May-18 02:00N 34°41' E 135°12'0 0.0
2017-May-18 01:30N 34°41' E 135°12'  

Dump ship's entire track history